createdAt,value
2023-02-19T00:01:58.805Z,16.46
2023-02-19T00:04:29.256Z,16.45
2023-02-19T00:07:00.306Z,16.41
2023-02-19T00:09:32.570Z,16.26
2023-02-19T00:12:02.676Z,16.22
2023-02-19T00:14:32.608Z,16.26
2023-02-19T00:17:02.865Z,16.25
2023-02-19T00:19:32.924Z,16.28
2023-02-19T00:22:06.428Z,16.09
2023-02-19T00:24:36.735Z,16.00
2023-02-19T00:27:06.436Z,15.84
2023-02-19T00:29:36.678Z,15.88
2023-02-19T00:32:07.273Z,15.93
2023-02-19T00:34:38.943Z,15.97
2023-02-19T00:37:08.874Z,15.97
2023-02-19T00:39:38.140Z,15.94
2023-02-19T00:42:08.397Z,15.93
2023-02-19T00:44:38.968Z,15.88
2023-02-19T00:47:09.521Z,15.74
2023-02-19T00:49:41.453Z,15.67
2023-02-19T00:52:12.131Z,15.46
2023-02-19T00:54:42.618Z,15.35
2023-02-19T00:57:15.154Z,15.26
2023-02-19T00:59:46.264Z,15.06
2023-02-19T01:02:17.240Z,14.99
2023-02-19T01:04:49.531Z,14.87
2023-02-19T01:07:21.727Z,14.67
2023-02-19T01:09:54.003Z,14.63
2023-02-19T01:12:26.840Z,14.64
2023-02-19T01:14:57.195Z,14.56
2023-02-19T01:17:28.321Z,14.65
2023-02-19T01:19:58.536Z,14.61
2023-02-19T01:22:29.595Z,14.60
2023-02-19T01:25:00.825Z,14.52
2023-02-19T01:27:31.251Z,14.48
2023-02-19T01:30:01.749Z,14.48
2023-02-19T01:32:31.506Z,14.37
2023-02-19T01:35:02.130Z,14.26
2023-02-19T01:37:34.149Z,14.16
2023-02-19T01:40:04.920Z,14.02
2023-02-19T01:42:35.282Z,13.90
2023-02-19T01:45:26.400Z,13.85
2023-02-19T01:48:23.135Z,13.68
2023-02-19T01:51:04.446Z,13.63
2023-02-19T01:53:39.118Z,13.48
2023-02-19T01:56:12.234Z,13.41
2023-02-19T01:58:44.043Z,13.35
2023-02-19T02:01:16.165Z,13.25
2023-02-19T02:03:50.164Z,13.18
2023-02-19T02:06:32.829Z,13.14
2023-02-19T02:09:22.363Z,13.11
2023-02-19T02:11:55.828Z,13.04
2023-02-19T02:14:32.642Z,13.06
2023-02-19T02:17:21.237Z,13.10
2023-02-19T02:20:19.303Z,13.07
2023-02-19T02:23:11.938Z,13.00
2023-02-19T02:26:23.921Z,13.04
2023-02-19T02:29:13.287Z,13.00
2023-02-19T02:31:51.829Z,12.97
2023-02-19T02:34:34.817Z,12.96
2023-02-19T02:37:09.175Z,12.87
2023-02-19T02:39:40.751Z,12.89
2023-02-19T02:42:29.967Z,12.87
2023-02-19T02:45:37.733Z,12.92
2023-02-19T02:48:57.009Z,12.87
2023-02-19T02:51:35.900Z,12.80
2023-02-19T02:54:34.631Z,13.07
2023-02-19T02:57:16.487Z,12.97
2023-02-19T02:59:51.358Z,12.87
2023-02-19T03:02:31.340Z,12.82
2023-02-19T03:05:27.646Z,12.79
2023-02-19T03:08:07.371Z,12.83
2023-02-19T03:10:40.681Z,12.82
2023-02-19T03:13:36.472Z,12.80
2023-02-19T03:16:40.593Z,12.80
2023-02-19T03:19:22.788Z,12.76
2023-02-19T03:21:55.351Z,12.75
2023-02-19T03:24:51.799Z,12.70
2023-02-19T03:27:23.905Z,12.72
2023-02-19T03:30:03.846Z,12.69
2023-02-19T03:32:49.729Z,12.67
2023-02-19T03:35:27.531Z,12.69
2023-02-19T03:38:19.773Z,12.64
2023-02-19T03:41:08.516Z,12.66
2023-02-19T03:43:47.792Z,12.62
2023-02-19T03:46:27.300Z,12.62
2023-02-19T03:49:07.839Z,12.66
2023-02-19T03:51:46.282Z,12.69
2023-02-19T03:54:36.879Z,12.64
2023-02-19T03:57:38.257Z,12.59
2023-02-19T04:00:36.132Z,12.57
2023-02-19T04:03:29.504Z,12.57
2023-02-19T04:06:04.839Z,12.53
2023-02-19T04:08:41.206Z,12.48
2023-02-19T04:11:12.716Z,12.45
2023-02-19T04:14:07.022Z,12.41
2023-02-19T04:16:41.893Z,12.38
2023-02-19T04:19:17.525Z,12.29
2023-02-19T04:21:52.594Z,12.34
2023-02-19T04:24:38.014Z,12.35
2023-02-19T04:27:10.231Z,12.29
2023-02-19T04:29:42.749Z,12.25
2023-02-19T04:32:15.378Z,12.25
2023-02-19T04:34:45.529Z,12.25
2023-02-19T04:37:15.308Z,12.20
2023-02-19T04:39:46.368Z,12.13
2023-02-19T04:42:16.777Z,12.10
2023-02-19T04:44:47.863Z,12.08
2023-02-19T04:47:20.881Z,12.08
2023-02-19T04:49:52.286Z,12.05
2023-02-19T04:52:22.380Z,12.11
2023-02-19T04:54:52.678Z,12.04
2023-02-19T04:57:23.767Z,11.94
2023-02-19T04:59:54.517Z,11.94
2023-02-19T05:02:25.194Z,11.88
2023-02-19T05:04:55.013Z,11.84
2023-02-19T05:07:25.828Z,11.87
2023-02-19T05:09:56.128Z,11.90
2023-02-19T05:12:26.321Z,11.87
2023-02-19T05:14:56.387Z,11.85
2023-02-19T05:17:28.093Z,11.88
2023-02-19T05:19:58.260Z,11.85
2023-02-19T05:22:31.323Z,11.94
2023-02-19T05:25:02.508Z,11.93
2023-02-19T05:27:34.009Z,11.85
2023-02-19T05:30:04.396Z,11.94
2023-02-19T05:32:36.132Z,11.95
2023-02-19T05:35:07.315Z,11.98
2023-02-19T05:37:37.834Z,12.08
2023-02-19T05:40:07.869Z,12.14
2023-02-19T05:42:38.111Z,12.13
2023-02-19T05:45:08.579Z,12.08
2023-02-19T05:47:39.253Z,12.05
2023-02-19T05:50:10.522Z,12.08
2023-02-19T05:52:40.895Z,11.98
2023-02-19T05:55:11.610Z,12.01
2023-02-19T05:57:48.056Z,11.94
2023-02-19T06:00:20.529Z,11.90
2023-02-19T06:02:51.138Z,11.85
2023-02-19T06:05:22.191Z,11.81
2023-02-19T06:07:53.237Z,11.80
2023-02-19T06:10:24.267Z,11.78
2023-02-19T06:12:55.679Z,11.77
2023-02-19T06:15:25.905Z,11.75
2023-02-19T06:17:56.645Z,11.77
2023-02-19T06:20:28.060Z,11.75
2023-02-19T06:22:59.218Z,11.74
2023-02-19T06:25:29.410Z,11.73
2023-02-19T06:28:02.775Z,11.66
2023-02-19T06:30:33.701Z,11.59
2023-02-19T06:33:03.682Z,11.49
2023-02-19T06:35:33.866Z,11.52
2023-02-19T06:38:04.550Z,11.46
2023-02-19T06:40:35.608Z,11.43
2023-02-19T06:43:05.440Z,11.43
2023-02-19T06:45:35.960Z,11.43
2023-02-19T06:48:06.855Z,11.39
2023-02-19T06:50:37.718Z,11.29
2023-02-19T06:53:08.058Z,11.22
2023-02-19T06:55:38.230Z,11.14
2023-02-19T06:58:09.119Z,11.18
2023-02-19T07:00:39.688Z,11.12
2023-02-19T07:03:10.821Z,11.09
2023-02-19T07:05:46.029Z,11.05
2023-02-19T07:08:19.385Z,11.01
2023-02-19T07:10:58.169Z,10.98
2023-02-19T07:13:29.061Z,10.94
2023-02-19T07:16:04.568Z,10.94
2023-02-19T07:18:36.106Z,10.91
2023-02-19T07:21:09.046Z,10.87
2023-02-19T07:23:41.497Z,10.87
2023-02-19T07:26:14.035Z,10.82
2023-02-19T07:28:49.118Z,10.81
2023-02-19T07:31:21.996Z,10.78
2023-02-19T07:33:53.131Z,10.75
2023-02-19T07:36:25.456Z,10.71
2023-02-19T07:39:00.373Z,10.78
2023-02-19T07:41:31.110Z,10.74
2023-02-19T07:44:01.040Z,10.75
2023-02-19T07:46:31.348Z,10.68
2023-02-19T07:49:01.005Z,10.68
2023-02-19T07:51:31.458Z,10.69
2023-02-19T07:54:01.442Z,10.67
2023-02-19T07:56:31.784Z,10.61
2023-02-19T07:59:01.596Z,10.63
2023-02-19T08:01:49.877Z,10.61
2023-02-19T08:04:21.048Z,10.56
2023-02-19T08:06:51.770Z,10.57
2023-02-19T08:09:21.477Z,10.57
2023-02-19T08:12:09.796Z,10.58
2023-02-19T08:14:40.233Z,10.54
2023-02-19T08:17:11.350Z,10.50
2023-02-19T08:19:41.605Z,10.50
2023-02-19T08:22:11.339Z,10.50
2023-02-19T08:24:44.054Z,10.44
2023-02-19T08:27:14.899Z,10.40
2023-02-19T08:29:45.921Z,10.36
2023-02-19T08:32:16.093Z,10.30
2023-02-19T08:34:45.815Z,10.24
2023-02-19T08:37:15.387Z,10.24
2023-02-19T08:39:45.722Z,10.23
2023-02-19T08:42:16.939Z,10.23
2023-02-19T08:44:46.912Z,10.21
2023-02-19T08:47:17.587Z,10.20
2023-02-19T08:49:48.218Z,10.17
2023-02-19T08:52:19.574Z,10.20
2023-02-19T08:54:49.797Z,10.16
2023-02-19T08:57:21.206Z,10.13
2023-02-19T08:59:52.636Z,10.14
2023-02-19T09:02:22.568Z,10.16
2023-02-19T09:04:52.871Z,10.17
2023-02-19T09:07:23.215Z,10.17
2023-02-19T09:09:54.412Z,10.19
2023-02-19T09:12:25.049Z,10.21
2023-02-19T09:14:56.522Z,10.20
2023-02-19T09:17:26.515Z,10.26
2023-02-19T09:19:57.153Z,10.23
2023-02-19T09:22:27.826Z,10.29
2023-02-19T09:24:58.429Z,10.33
2023-02-19T09:27:29.462Z,10.37
2023-02-19T09:30:01.108Z,10.43
2023-02-19T09:32:33.352Z,10.47
2023-02-19T09:35:03.366Z,10.46
2023-02-19T09:37:34.158Z,10.48
2023-02-19T09:40:04.629Z,10.51
2023-02-19T09:42:34.813Z,10.60
2023-02-19T09:45:07.119Z,10.63
2023-02-19T09:47:37.514Z,10.69
2023-02-19T09:50:18.459Z,10.81
2023-02-19T09:53:04.254Z,10.94
2023-02-19T09:55:44.394Z,11.04
2023-02-19T09:58:45.848Z,11.15
2023-02-19T10:01:17.079Z,11.26
2023-02-19T10:03:50.756Z,11.40
2023-02-19T10:06:25.643Z,11.54
2023-02-19T10:09:17.347Z,11.73
2023-02-19T10:11:49.299Z,11.85
2023-02-19T10:14:26.698Z,12.14
2023-02-19T10:17:00.907Z,13.01
2023-02-19T10:19:31.121Z,16.60
2023-02-19T10:22:00.951Z,18.40
2023-02-19T10:24:32.225Z,17.68
2023-02-19T10:27:02.935Z,16.88
2023-02-19T10:29:33.086Z,17.24
2023-02-19T10:32:24.885Z,18.84
2023-02-19T10:35:16.327Z,20.28
2023-02-19T10:37:52.290Z,21.03
2023-02-19T10:40:26.948Z,22.00
2023-02-19T10:43:00.810Z,22.61
2023-02-19T10:45:36.973Z,23.06
2023-02-19T10:48:09.488Z,23.23
2023-02-19T10:50:48.073Z,22.65
2023-02-19T10:53:25.485Z,22.37
2023-02-19T10:56:33.258Z,22.69
2023-02-19T10:59:28.233Z,22.91
2023-02-19T11:02:18.801Z,24.07
2023-02-19T11:05:27.365Z,23.82
2023-02-19T11:07:58.772Z,22.68
2023-02-19T11:10:31.211Z,23.66
2023-02-19T11:13:04.971Z,24.05
2023-02-19T11:15:39.723Z,23.84
2023-02-19T11:18:15.673Z,24.07
2023-02-19T11:21:04.609Z,23.10
2023-02-19T11:23:49.182Z,22.72
2023-02-19T11:26:28.126Z,22.58
2023-02-19T11:29:00.935Z,23.37
2023-02-19T11:31:37.873Z,24.18
2023-02-19T11:34:22.237Z,23.94
2023-02-19T11:37:17.366Z,24.32
2023-02-19T11:39:50.961Z,24.49
2023-02-19T11:42:38.102Z,24.30
2023-02-19T11:45:16.277Z,24.83
2023-02-19T11:48:04.985Z,25.23
2023-02-19T11:51:11.441Z,24.75
2023-02-19T11:53:49.925Z,24.93
2023-02-19T11:56:23.639Z,24.98
2023-02-19T11:59:01.065Z,24.40
2023-02-19T12:01:40.556Z,24.18
2023-02-19T12:04:16.238Z,24.32
2023-02-19T12:06:47.005Z,24.49
2023-02-19T12:09:49.625Z,24.15
2023-02-19T12:12:26.030Z,24.08
2023-02-19T12:15:04.844Z,24.48
2023-02-19T12:18:07.254Z,24.84
2023-02-19T12:20:55.128Z,24.52
2023-02-19T12:23:46.542Z,24.76
2023-02-19T12:26:22.375Z,24.98
2023-02-19T12:29:18.421Z,25.11
2023-02-19T12:32:14.343Z,24.86
2023-02-19T12:35:05.655Z,25.35
2023-02-19T12:37:53.838Z,25.97
2023-02-19T12:40:58.026Z,26.00
2023-02-19T12:43:30.972Z,26.07
2023-02-19T12:46:21.244Z,25.93
2023-02-19T12:49:00.264Z,26.07
2023-02-19T12:51:35.667Z,25.94
2023-02-19T12:54:24.791Z,26.80
2023-02-19T12:57:08.231Z,27.47
2023-02-19T13:00:04.082Z,26.34
2023-02-19T13:02:47.959Z,26.80
2023-02-19T13:05:21.356Z,27.26
2023-02-19T13:08:17.434Z,26.57
2023-02-19T13:10:58.599Z,26.61
2023-02-19T13:13:36.559Z,26.96
2023-02-19T13:16:18.935Z,27.16
2023-02-19T13:19:11.074Z,27.54
2023-02-19T13:21:59.678Z,27.23
2023-02-19T13:24:36.948Z,27.08
2023-02-19T13:27:41.669Z,26.65
2023-02-19T13:30:31.076Z,26.82
2023-02-19T13:33:24.217Z,27.10
2023-02-19T13:36:09.603Z,27.26
2023-02-19T13:38:46.345Z,27.06
2023-02-19T13:41:34.915Z,27.40
2023-02-19T13:44:09.594Z,27.20
2023-02-19T13:46:46.260Z,27.74
2023-02-19T13:49:36.364Z,27.84
2023-02-19T13:52:34.846Z,27.70
2023-02-19T13:55:43.502Z,27.49
2023-02-19T13:58:40.119Z,28.02
2023-02-19T14:01:15.162Z,28.25
2023-02-19T14:03:45.107Z,28.55
2023-02-19T14:06:19.759Z,27.43
2023-02-19T14:09:01.429Z,27.88
2023-02-19T14:11:49.405Z,27.91
2023-02-19T14:14:35.416Z,27.93
2023-02-19T14:17:29.637Z,28.32
2023-02-19T14:20:25.517Z,28.42
2023-02-19T14:23:10.998Z,27.77
2023-02-19T14:25:53.206Z,27.60
2023-02-19T14:28:23.586Z,27.66
2023-02-19T14:31:43.383Z,28.44
2023-02-19T14:34:28.324Z,28.76
2023-02-19T14:37:02.733Z,28.29
2023-02-19T14:39:47.809Z,28.44
2023-02-19T14:42:28.806Z,28.12
2023-02-19T14:45:01.752Z,28.70
2023-02-19T14:47:36.046Z,29.38
2023-02-19T14:50:33.738Z,29.71
2023-02-19T14:53:07.565Z,28.52
2023-02-19T14:55:41.608Z,27.10
2023-02-19T14:58:19.984Z,27.51
2023-02-19T15:00:51.566Z,27.30
2023-02-19T15:03:45.807Z,28.51
2023-02-19T15:06:21.735Z,28.75
2023-02-19T15:08:56.386Z,29.04
2023-02-19T15:11:30.299Z,29.24
2023-02-19T15:14:04.163Z,29.28
2023-02-19T15:16:37.035Z,28.99
2023-02-19T15:19:12.107Z,29.23
2023-02-19T15:21:49.679Z,29.34
2023-02-19T15:24:21.651Z,29.14
2023-02-19T15:26:56.449Z,29.57
2023-02-19T15:29:29.556Z,29.35
2023-02-19T15:32:02.428Z,28.80
2023-02-19T15:34:34.510Z,29.07
2023-02-19T15:37:16.393Z,29.57
2023-02-19T15:39:49.242Z,28.31
2023-02-19T15:42:39.309Z,28.90
2023-02-19T15:45:24.785Z,29.64
2023-02-19T15:48:28.704Z,29.81
2023-02-19T15:51:09.484Z,29.90
2023-02-19T15:54:21.202Z,29.96
2023-02-19T15:57:01.437Z,29.62
2023-02-19T15:59:41.939Z,29.95
2023-02-19T16:02:16.778Z,30.61
2023-02-19T16:04:50.530Z,30.09
2023-02-19T16:07:37.118Z,30.53
2023-02-19T16:10:27.200Z,30.56
2023-02-19T16:13:02.306Z,29.78
2023-02-19T16:15:36.398Z,29.85
2023-02-19T16:18:08.134Z,29.78
2023-02-19T16:20:39.419Z,29.98
2023-02-19T16:23:26.384Z,29.45
2023-02-19T16:26:02.770Z,29.71
2023-02-19T16:28:39.242Z,29.68
2023-02-19T16:31:13.690Z,30.47
2023-02-19T16:33:48.926Z,30.48
2023-02-19T16:36:19.301Z,29.92
2023-02-19T16:39:13.467Z,29.78
2023-02-19T16:41:50.264Z,29.85
2023-02-19T16:44:23.643Z,29.85
2023-02-19T16:47:09.342Z,29.66
2023-02-19T16:49:41.364Z,30.10
2023-02-19T16:52:16.700Z,30.05
2023-02-19T16:54:48.546Z,30.13
2023-02-19T16:57:19.406Z,30.26
2023-02-19T16:59:50.046Z,30.41
2023-02-19T17:02:23.942Z,30.57
2023-02-19T17:04:57.136Z,30.32
2023-02-19T17:07:29.631Z,30.43
2023-02-19T17:10:00.192Z,30.08
2023-02-19T17:12:30.790Z,29.90
2023-02-19T17:15:00.500Z,30.06
2023-02-19T17:17:30.714Z,30.13
2023-02-19T17:20:01.412Z,30.56
2023-02-19T17:22:34.948Z,30.23
2023-02-19T17:25:05.267Z,30.17
2023-02-19T17:27:35.135Z,30.41
2023-02-19T17:30:11.431Z,30.87
2023-02-19T17:32:42.241Z,30.60
2023-02-19T17:35:15.408Z,30.24
2023-02-19T17:37:46.349Z,30.01
2023-02-19T17:40:37.441Z,30.27
2023-02-19T17:43:11.768Z,29.62
2023-02-19T17:45:42.712Z,29.68
2023-02-19T17:48:16.215Z,29.81
2023-02-19T17:50:46.904Z,29.55
2023-02-19T17:53:16.864Z,29.93
2023-02-19T17:55:48.423Z,29.75
2023-02-19T17:58:19.206Z,29.61
2023-02-19T18:00:49.455Z,29.85
2023-02-19T18:03:19.668Z,30.16
2023-02-19T18:05:50.220Z,29.85
2023-02-19T18:08:20.156Z,29.66
2023-02-19T18:10:50.612Z,29.72
2023-02-19T18:13:20.680Z,30.34
2023-02-19T18:15:52.214Z,29.96
2023-02-19T18:18:26.017Z,30.40
2023-02-19T18:20:56.120Z,30.05
2023-02-19T18:23:26.140Z,29.98
2023-02-19T18:25:57.070Z,29.65
2023-02-19T18:28:27.903Z,29.86
2023-02-19T18:30:58.199Z,29.38
2023-02-19T18:33:28.157Z,29.25
2023-02-19T18:35:58.204Z,29.15
2023-02-19T18:38:28.452Z,28.89
2023-02-19T18:40:59.048Z,28.90
2023-02-19T18:43:28.874Z,28.79
2023-02-19T18:45:59.072Z,28.96
2023-02-19T18:48:29.425Z,28.97
2023-02-19T18:50:59.384Z,29.31
2023-02-19T18:53:31.262Z,29.23
2023-02-19T18:56:03.291Z,29.15
2023-02-19T18:58:34.321Z,29.37
2023-02-19T19:01:04.633Z,28.73
2023-02-19T19:03:34.382Z,28.48
2023-02-19T19:06:05.556Z,28.73
2023-02-19T19:08:36.281Z,28.49
2023-02-19T19:11:06.547Z,28.99
2023-02-19T19:13:37.072Z,29.37
2023-02-19T19:16:07.521Z,28.45
2023-02-19T19:18:39.806Z,27.16
2023-02-19T19:21:11.116Z,28.38
2023-02-19T19:23:41.726Z,28.62
2023-02-19T19:26:12.884Z,28.59
2023-02-19T19:28:47.709Z,28.82
2023-02-19T19:31:19.578Z,28.31
2023-02-19T19:33:50.605Z,28.69
2023-02-19T19:36:24.596Z,28.36
2023-02-19T19:38:56.234Z,27.38
2023-02-19T19:41:26.647Z,27.69
2023-02-19T19:43:56.397Z,28.08
2023-02-19T19:46:27.201Z,28.14
2023-02-19T19:48:58.068Z,28.05
2023-02-19T19:51:35.734Z,28.12
2023-02-19T19:54:06.250Z,27.09
2023-02-19T19:56:45.257Z,27.35
2023-02-19T19:59:18.833Z,27.56
2023-02-19T20:01:54.215Z,27.66
2023-02-19T20:04:25.750Z,27.57
2023-02-19T20:06:56.862Z,27.32
2023-02-19T20:09:30.140Z,27.23
2023-02-19T20:12:00.473Z,27.08
2023-02-19T20:14:31.342Z,26.60
2023-02-19T20:17:01.804Z,26.10
2023-02-19T20:19:32.828Z,25.89
2023-02-19T20:22:03.218Z,25.57
2023-02-19T20:24:33.096Z,25.42
2023-02-19T20:27:04.312Z,25.49
2023-02-19T20:29:35.946Z,25.17
2023-02-19T20:32:06.799Z,25.15
2023-02-19T20:34:38.374Z,25.13
2023-02-19T20:37:09.385Z,25.15
2023-02-19T20:39:39.112Z,24.98
2023-02-19T20:42:09.749Z,25.00
2023-02-19T20:44:40.976Z,25.02
2023-02-19T20:47:12.050Z,24.87
2023-02-19T20:49:47.526Z,24.70
2023-02-19T20:52:20.092Z,24.56
2023-02-19T20:54:53.029Z,24.38
2023-02-19T20:57:24.831Z,24.33
2023-02-19T20:59:55.876Z,24.25
2023-02-19T21:02:30.357Z,24.19
2023-02-19T21:05:01.147Z,24.08
2023-02-19T21:07:32.751Z,24.07
2023-02-19T21:10:05.289Z,23.94
2023-02-19T21:12:35.578Z,23.84
2023-02-19T21:15:07.345Z,23.75
2023-02-19T21:17:38.295Z,23.68
2023-02-19T21:20:08.839Z,23.43
2023-02-19T21:22:39.204Z,23.40
2023-02-19T21:25:11.412Z,23.36
2023-02-19T21:27:42.328Z,23.20
2023-02-19T21:30:12.574Z,23.08
2023-02-19T21:32:43.054Z,22.92
2023-02-19T21:35:13.036Z,22.73
2023-02-19T21:37:45.575Z,22.72
2023-02-19T21:40:17.017Z,22.55
2023-02-19T21:42:47.745Z,22.44
2023-02-19T21:45:17.615Z,22.41
2023-02-19T21:47:48.827Z,22.34
2023-02-19T21:50:21.112Z,22.25
2023-02-19T21:52:51.594Z,22.17
2023-02-19T21:55:21.360Z,22.14
2023-02-19T21:57:51.746Z,22.10
2023-02-19T22:00:22.656Z,21.96
2023-02-19T22:02:52.992Z,21.89
2023-02-19T22:05:23.025Z,21.81
2023-02-19T22:07:55.594Z,21.75
2023-02-19T22:10:26.545Z,21.63
2023-02-19T22:12:56.926Z,21.63
2023-02-19T22:15:27.112Z,21.55
2023-02-19T22:17:56.925Z,21.51
2023-02-19T22:20:27.726Z,21.42
2023-02-19T22:23:01.604Z,21.34
2023-02-19T22:25:32.491Z,21.34
2023-02-19T22:28:02.485Z,21.38
2023-02-19T22:30:32.848Z,21.28
2023-02-19T22:33:05.210Z,21.15
2023-02-19T22:35:37.012Z,21.07
2023-02-19T22:38:07.599Z,21.05
2023-02-19T22:40:37.453Z,20.97
2023-02-19T22:43:07.412Z,20.97
2023-02-19T22:45:37.810Z,20.96
2023-02-19T22:48:08.377Z,20.90
2023-02-19T22:50:38.201Z,20.91
2023-02-19T22:53:08.851Z,20.83
2023-02-19T22:55:38.602Z,20.87
2023-02-19T22:58:08.770Z,20.76
2023-02-19T23:00:39.148Z,20.72
2023-02-19T23:03:09.685Z,20.67
2023-02-19T23:05:39.472Z,20.59
2023-02-19T23:08:09.486Z,20.59
2023-02-19T23:10:39.599Z,20.56
2023-02-19T23:13:10.852Z,20.56
2023-02-19T23:15:40.675Z,20.43
2023-02-19T23:18:12.747Z,20.46
2023-02-19T23:20:42.929Z,20.36
2023-02-19T23:23:13.104Z,20.43
2023-02-19T23:25:45.226Z,20.47
2023-02-19T23:28:15.390Z,20.53
2023-02-19T23:30:45.740Z,20.45
2023-02-19T23:33:16.873Z,20.29
2023-02-19T23:35:47.517Z,20.25
2023-02-19T23:38:17.281Z,20.21
2023-02-19T23:40:47.993Z,20.21
2023-02-19T23:43:18.640Z,20.14
2023-02-19T23:45:50.929Z,20.04
2023-02-19T23:48:22.130Z,20.04
2023-02-19T23:50:52.313Z,19.99
2023-02-19T23:53:22.103Z,20.12
2023-02-19T23:55:52.923Z,20.09
2023-02-19T23:58:23.792Z,20.07
